Cranbourne Gardens, Victoria

7:13 AM AEST on July 29, 2016 (GMT +1000)
Botanic Ridge | | Change Station

Elev 308 ft 38.14 °S, 145.26 °E | Updated 1 second ago

Scattered Clouds
Scattered Clouds
51.6 °F
Feels Like 51.6 °F
N
1.8
Wind Variable Wind from North
Gusts 2.5 mph

Today
High -- | Low -- °F
--% Chance of Precip.
Yesterday
High -- | Low -- °F
Precip. -- in
Pressure 30.12 in
Visibility 6.2 miles
Clouds Scattered Clouds 5200 ft
Dew Point 42 °F
Humidity 70%
Rainfall 0.00 in
Snow Depth Not available.
7:22 AM 5:28 PM
Waning Crescent, 29% visible
METAR YMEN 282100Z AUTO 36013KT 9999 // SCT052 10/08 Q1020
Pressure 30.12 in
Visibility 6.2 miles
Clouds Scattered Clouds 5200 ft
Dew Point 42 °F
Humidity 70%
Rainfall 0.00 in
Snow Depth Not available.
7:22 AM 5:28 PM
Waning Crescent, 29% visible
METAR YMEN 282100Z AUTO 36013KT 9999 // SCT052 10/08 Q1020

10-Day Weather Forecast

Almanac

Astronomy

Jul. 29, 2016 Rise Set
Actual Time
Civil Twilight
Nautical Twilight
Astronomical Twilight
Moon
Length of Visible Light
Length of Day
Tomorrow will be .
, % of the Moon is Illuminated

Today's Extremes

Country Highs Country Lows

Community

WunderPhotos

Upload Photos

1,928,224 photos uploaded!

WunderBlog® & News

Nearby

Air Quality

  Air Quality AQ Index Pollutant
Not available.

Snow Depth

Station Depth Elevation

Earthquake Activity

City Distance Mag. Time & Date
Minimum magnitude displayed is 2.5.

Coastal Water Temperatures

Place Temperature

Stations

Nearby Weather Stations

Station Location Temp. Windchill Dew Point Humidity Wind Precip. Elev Updated Type